This is the latest recevied weather packets stored in our database for station/object 9W2CHF-3. If no packets are shown the sender has not sent any weather packets the latest 10 day(s).
| Time | Temp. | Humidity | Pressure | Rain* | Wind** | Luminosity | Snow |
|---|---|---|---|---|---|---|---|
| 1777798020 | 32.22° C | 77% | 1007.9 hPa | - | - | - | - |
| 1777796820 | 35.56° C | 61% | 1008.3 hPa | - | - | - | - |
| 1777795620 | 36.11° C | 62% | 1008.2 hPa | - | - | - | - |
| 1777794420 | 35.56° C | 58% | 1008.3 hPa | - | - | - | - |
| 1777793220 | 35.56° C | 62% | 1008.7 hPa | - | - | - | - |
| 1777792020 | 38.33° C | 58% | 1008.6 hPa | - | - | - | - |
| 1777790819 | 39.44° C | 51% | 1008.8 hPa | - | - | - | - |
| 1777789619 | 40.56° C | 46% | 1009.2 hPa | - | - | - | - |
| 1777788418 | 40° C | 49% | 1009.7 hPa | - | - | - | - |
| 1777787218 | 40.56° C | 46% | 1010 hPa | - | - | - | - |
| 1777786018 | 39.44° C | 49% | 1010.2 hPa | - | - | - | - |
| 1777784818 | 41.11° C | 47% | 1010.4 hPa | - | - | - | - |
| 1777783618 | 40° C | 48% | 1010.6 hPa | - | - | - | - |
| 1777782418 | 40.56° C | 48% | 1010.8 hPa | - | - | - | - |
| 1777781218 | 40° C | 51% | 1011.1 hPa | - | - | - | - |
| 1777780018 | 38.89° C | 54% | 1011 hPa | - | - | - | - |
| 1777778817 | 38.89° C | 55% | 1011.3 hPa | - | - | - | - |
| 1777777617 | 37.78° C | 56% | 1011.5 hPa | - | - | - | - |
| 1777776417 | 37.22° C | 62% | 1011.5 hPa | - | - | - | - |
| 1777775216 | 37.22° C | 60% | 1011.3 hPa | - | - | - | - |
| 1777774016 | 36.11° C | 65% | 1011.3 hPa | - | - | - | - |
| 1777772816 | 35° C | 79% | 1011.1 hPa | - | - | - | - |
| 1777771616 | 32.78° C | 94% | 1011 hPa | - | - | - | - |
| 1777770416 | 32.22° C | 94% | 1010.9 hPa | - | - | - | - |
| 1777769218 | 31.11° C | 100% | 1010.5 hPa | - | - | - | - |
* Rain since midnight (hover to see other rain measurements)
** Current wind speed in m/s (hover to see current wind gust speed)